Time;durP1;ratioP1;P1;durP2;ratioP2;P2;SDS_P1;SDS_P2;PMS_P1;PMS_P2;Temp;Humidity;BMP_temperature;BMP_pressure;BME280_temperature;BME280_humidity;BME280_pressure;Samples;Min_cycle;Max_cycle;Signal;HPM_P1;HPM_P2
2023/04/11 00:01:50;;;;;;;53.20;33.90;;;;;;;7.83;100.00;100219.06;180672;1264;44014;-90
2023/04/11 00:10:39;;;;;;;53.70;36.70;;;;;;;7.60;100.00;100204.28;180725;1267;44284;-91
2023/04/11 00:14:47;;;;;;;51.20;33.50;;;;;;;7.60;100.00;100198.98;180652;1267;47408;-90
2023/04/11 00:18:52;;;;;;;46.60;29.70;;;;;;;7.71;100.00;100193.23;180529;1267;44286;-89
2023/04/11 00:22:57;;;;;;;50.30;32.60;;;;;;;7.69;100.00;100190.34;180538;1266;43812;-90
2023/04/11 00:58:46;;;;;;;44.80;33.80;;;;;;;7.34;100.00;100148.20;159862;1261;46463;-90
2023/04/11 01:07:41;;;;;;;52.70;35.90;;;;;;;7.33;100.00;100129.06;180900;1266;43795;-89
2023/04/11 01:16:52;;;;;;;57.70;36.30;;;;;;;7.26;100.00;100109.91;178968;1267;43789;-90
2023/04/11 01:21:00;;;;;;;47.10;27.80;;;;;;;7.28;100.00;100099.94;180666;1267;43781;-90
2023/04/11 01:25:05;;;;;;;53.10;33.90;;;;;;;7.26;100.00;100085.56;180625;1267;43869;-90
2023/04/11 01:39:30;;;;;;;56.80;32.40;;;;;;;7.38;100.00;100085.27;180551;1266;43918;-89
2023/04/11 01:43:34;;;;;;;48.90;34.30;;;;;;;7.33;100.00;100076.63;180521;1266;43813;-90
2023/04/11 01:47:39;;;;;;;41.00;29.70;;;;;;;7.30;100.00;100074.43;180638;1267;43819;-90
2023/04/11 02:00:35;;;;;;;46.70;31.50;;;;;;;7.33;100.00;100063.41;169254;1260;44969;-90
2023/04/11 02:04:42;;;;;;;45.50;31.70;;;;;;;7.45;100.00;100070.51;180893;1264;44183;-88
2023/04/11 02:08:45;;;;;;;44.50;31.30;;;;;;;7.58;100.00;100069.05;180737;1263;43742;-88
2023/04/11 02:12:49;;;;;;;37.90;26.60;;;;;;;7.66;100.00;100066.71;180727;1263;44025;-88
2023/04/11 02:26:28;;;;;;;36.70;27.50;;;;;;;7.59;100.00;100042.64;180721;1263;44331;-90
2023/04/11 03:20:48;;;;;;;35.90;27.10;;;;;;;7.58;100.00;99986.08;180696;1259;45417;31
2023/04/11 03:55:43;;;;;;;33.30;24.50;;;;;;;7.68;100.00;99940.86;166009;1261;57930;31
2023/04/11 04:00:15;;;;;;;40.10;31.40;;;;;;;7.83;100.00;99937.52;169287;1261;49217;-90
2023/04/11 04:04:19;;;;;;;33.60;23.80;;;;;;;7.90;100.00;99930.45;180726;1264;44172;-86
2023/04/11 04:08:23;;;;;;;47.20;33.40;;;;;;;7.94;100.00;99920.77;180724;1264;44172;-87
2023/04/11 04:12:27;;;;;;;35.50;24.70;;;;;;;7.97;100.00;99903.57;180738;1264;43821;-87
2023/04/11 04:16:30;;;;;;;35.50;23.80;;;;;;;8.00;100.00;99895.07;180711;1264;60149;-88
2023/04/11 04:20:33;;;;;;;38.40;25.30;;;;;;;8.01;100.00;99889.34;180586;1264;44332;-89
2023/04/11 04:24:46;;;;;;;33.80;22.00;;;;;;;7.91;100.00;99886.92;180656;1264;43743;-91
2023/04/11 04:28:52;;;;;;;27.00;19.60;;;;;;;7.89;100.00;99885.34;180762;1264;43965;-89
2023/04/11 04:32:57;;;;;;;32.20;19.20;;;;;;;7.82;100.00;99888.64;180702;1264;43769;-90
2023/04/11 04:37:02;;;;;;;24.80;19.40;;;;;;;7.80;100.00;99875.35;180579;1264;57892;-89
2023/04/11 04:41:13;;;;;;;34.40;21.60;;;;;;;7.76;100.00;99859.20;180622;1264;44339;-89
2023/04/11 04:45:17;;;;;;;32.50;19.90;;;;;;;7.63;100.00;99842.06;180465;1264;43954;-88
2023/04/11 04:49:20;;;;;;;31.50;21.20;;;;;;;7.49;100.00;99830.44;180500;1264;44368;-89
2023/04/11 04:53:23;;;;;;;25.60;17.30;;;;;;;7.41;100.00;99819.92;180443;1264;43825;-89
2023/04/11 04:57:28;;;;;;;21.40;17.80;;;;;;;7.56;100.00;99813.30;180534;1264;59838;-88
2023/04/11 05:01:33;;;;;;;24.50;17.90;;;;;;;7.74;100.00;99808.21;180434;1264;43749;-89
2023/04/11 05:05:38;;;;;;;22.20;17.40;;;;;;;7.87;100.00;99797.75;180615;1264;43857;-88
2023/04/11 05:09:41;;;;;;;26.10;17.90;;;;;;;8.01;100.00;99796.44;180524;1264;44135;-89
2023/04/11 05:13:44;;;;;;;28.20;17.20;;;;;;;8.06;100.00;99784.55;180541;1264;45072;-88
2023/04/11 05:17:48;;;;;;;29.90;19.90;;;;;;;8.06;100.00;99780.85;180663;1264;59220;-88
2023/04/11 05:21:51;;;;;;;28.60;19.00;;;;;;;8.09;100.00;99772.81;180615;1264;43835;-89
2023/04/11 05:25:55;;;;;;;34.00;22.10;;;;;;;8.20;100.00;99756.41;180525;1264;43900;-90
2023/04/11 05:30:00;;;;;;;32.60;21.10;;;;;;;8.33;100.00;99739.71;180573;1263;44145;-90
2023/04/11 05:34:03;;;;;;;27.60;19.80;;;;;;;8.45;100.00;99732.67;180670;1264;44037;-89
2023/04/11 05:38:08;;;;;;;29.80;20.90;;;;;;;8.61;100.00;99735.84;180664;1264;59384;-88
2023/04/11 05:42:11;;;;;;;24.80;18.90;;;;;;;8.72;100.00;99742.05;180540;1264;44279;-88
2023/04/11 05:46:15;;;;;;;26.70;20.20;;;;;;;8.81;100.00;99748.73;180649;1264;43850;-88
2023/04/11 05:50:18;;;;;;;27.10;21.30;;;;;;;8.79;100.00;99753.98;180480;1264;43911;-88
2023/04/11 05:54:32;;;;;;;28.10;18.40;;;;;;;8.90;100.00;99749.39;180569;1264;43867;-88
2023/04/11 05:58:36;;;;;;;29.70;22.10;;;;;;;8.98;100.00;99735.95;180450;1264;58682;-88
2023/04/11 06:02:43;;;;;;;32.70;20.80;;;;;;;9.12;100.00;99732.56;180713;1264;44227;-88
2023/04/11 06:06:48;;;;;;;34.30;23.60;;;;;;;9.24;100.00;99731.88;180720;1264;44057;-88
2023/04/11 06:10:51;;;;;;;25.90;18.40;;;;;;;9.25;100.00;99730.20;180817;1263;44034;-89
2023/04/11 06:14:54;;;;;;;28.80;21.90;;;;;;;9.32;100.00;99722.39;180655;1264;44133;-89
2023/04/11 06:18:57;;;;;;;32.80;19.60;;;;;;;9.34;100.00;99707.52;180644;1264;58684;-89
2023/04/11 06:23:00;;;;;;;27.60;18.30;;;;;;;9.29;100.00;99704.73;180661;1264;44092;-88
2023/04/11 06:27:04;;;;;;;26.60;20.30;;;;;;;9.45;100.00;99706.71;180666;1264;44023;-88
2023/04/11 06:31:08;;;;;;;27.70;19.50;;;;;;;9.70;100.00;99712.39;180675;1264;44014;-88
2023/04/11 06:35:11;;;;;;;24.40;16.50;;;;;;;9.89;100.00;99711.27;180570;1264;43790;-87
2023/04/11 06:39:19;;;;;;;22.50;19.20;;;;;;;9.95;100.00;99694.96;180618;1264;59567;-88
2023/04/11 06:43:22;;;;;;;27.00;21.20;;;;;;;10.22;100.00;99683.02;180695;1263;44046;-89
2023/04/11 06:47:25;;;;;;;27.30;19.80;;;;;;;10.28;100.00;99670.27;180553;1263;44110;-88
2023/04/11 06:51:28;;;;;;;34.80;20.00;;;;;;;10.25;100.00;99661.83;180627;1263;48414;-88
2023/04/11 06:55:31;;;;;;;28.40;20.60;;;;;;;10.25;99.92;99651.19;180645;1264;43831;-89
2023/04/11 06:59:35;;;;;;;26.60;15.60;;;;;;;10.24;99.87;99642.06;180700;1263;59754;-89
2023/04/11 07:03:39;;;;;;;25.00;18.40;;;;;;;10.10;99.96;99639.24;180693;1264;44013;-88
2023/04/11 07:07:42;;;;;;;27.80;20.30;;;;;;;10.06;100.00;99632.41;180738;1263;44082;-88
2023/04/11 07:11:46;;;;;;;36.80;21.90;;;;;;;10.09;100.00;99627.34;180566;1264;43933;-88
2023/04/11 07:15:49;;;;;;;30.50;20.30;;;;;;;10.21;100.00;99617.89;180601;1264;44232;-88
2023/04/11 07:19:52;;;;;;;40.40;27.40;;;;;;;10.39;100.00;99612.73;180726;1263;59519;-88
2023/04/11 07:23:55;;;;;;;31.90;22.80;;;;;;;10.59;100.00;99616.97;180701;1263;43901;-88
2023/04/11 07:27:59;;;;;;;23.70;18.20;;;;;;;10.71;99.10;99619.40;180684;1263;43830;-88
2023/04/11 07:32:03;;;;;;;25.30;17.30;;;;;;;10.86;97.55;99620.20;180570;1264;43967;-88
2023/04/11 07:36:07;;;;;;;28.20;20.80;;;;;;;11.01;97.46;99613.40;180651;1264;43800;-88
2023/04/11 07:40:13;;;;;;;25.70;17.20;;;;;;;11.28;97.39;99614.67;180746;1264;59706;-89
2023/04/11 07:44:16;;;;;;;27.10;21.80;;;;;;;11.49;96.87;99614.97;180664;1264;44080;-89
2023/04/11 07:48:20;;;;;;;21.60;16.30;;;;;;;11.63;95.83;99606.70;180597;1263;44137;-88
2023/04/11 07:52:24;;;;;;;26.80;19.50;;;;;;;11.73;95.47;99601.09;180654;1263;44113;-88
2023/04/11 07:56:28;;;;;;;23.80;15.60;;;;;;;11.94;94.97;99593.70;180581;1263;43810;-88
2023/04/11 08:00:32;;;;;;;27.00;18.10;;;;;;;12.18;92.57;99596.79;180733;1263;59269;-88
2023/04/11 08:04:36;;;;;;;29.10;21.00;;;;;;;12.44;93.97;99600.36;180458;1263;271772;-89
2023/04/11 08:08:39;;;;;;;22.40;16.60;;;;;;;12.73;92.38;99600.73;180628;1263;44100;-89
2023/04/11 08:12:43;;;;;;;25.50;19.40;;;;;;;12.96;91.98;99597.23;180728;1263;44129;-88
2023/04/11 08:16:46;;;;;;;22.90;17.70;;;;;;;13.20;88.99;99594.83;180742;1263;44015;-88
2023/04/11 08:20:49;;;;;;;27.10;20.20;;;;;;;13.33;87.28;99596.98;180507;1263;59265;-88
2023/04/11 08:24:53;;;;;;;28.20;21.00;;;;;;;13.64;88.90;99597.24;180700;1264;43778;-89
2023/04/11 08:28:56;;;;;;;27.80;20.00;;;;;;;13.91;87.11;99587.75;180699;1264;43976;-88
2023/04/11 08:32:59;;;;;;;23.50;18.40;;;;;;;14.08;84.71;99577.85;180714;1263;44208;-88
2023/04/11 08:37:03;;;;;;;23.20;18.20;;;;;;;14.20;82.64;99573.06;180756;1263;43977;-88
2023/04/11 08:41:07;;;;;;;23.50;17.80;;;;;;;14.21;76.98;99569.33;180784;1264;60660;-88
2023/04/11 08:45:10;;;;;;;24.00;18.60;;;;;;;14.22;76.48;99560.60;180677;1264;43979;-87
2023/04/11 08:49:14;;;;;;;24.30;15.60;;;;;;;14.05;74.56;99562.94;180605;1264;44071;-88
2023/04/11 08:53:20;;;;;;;27.90;18.10;;;;;;;13.79;74.64;99571.44;180604;1264;44370;-88
2023/04/11 08:57:30;;;;;;;28.60;18.20;;;;;;;13.66;75.82;99565.19;180820;1264;44078;-88
2023/04/11 09:01:35;;;;;;;18.40;15.60;;;;;;;13.53;75.84;99567.15;180416;1264;59587;-88
2023/04/11 09:05:42;;;;;;;22.10;16.30;;;;;;;13.44;76.40;99575.41;180650;1264;43794;-88
2023/04/11 09:09:45;;;;;;;23.60;17.80;;;;;;;13.43;76.81;99580.20;180752;1264;43899;-87
2023/04/11 09:14:05;;;;;;;25.10;17.70;;;;;;;13.39;76.87;99577.67;180745;1264;43974;-88
2023/04/11 09:18:09;;;;;;;37.20;19.30;;;;;;;13.45;77.01;99558.13;180700;1264;44109;-88
2023/04/11 09:22:12;;;;;;;23.80;17.70;;;;;;;13.42;76.79;99554.99;180666;1264;58224;-88
2023/04/11 09:26:26;;;;;;;23.00;17.50;;;;;;;13.43;76.86;99556.86;180628;1264;43799;-85
2023/04/11 09:30:30;;;;;;;25.00;17.70;;;;;;;13.45;77.56;99560.73;180761;1264;43938;-85
2023/04/11 09:34:36;;;;;;;34.40;25.60;;;;;;;13.46;80.00;99566.52;180680;1264;44133;-85
2023/04/11 09:38:39;;;;;;;28.80;20.10;;;;;;;13.57;82.07;99576.05;180618;1264;44011;-86
2023/04/11 09:42:43;;;;;;;23.00;18.00;;;;;;;13.62;81.93;99584.52;180706;1264;57975;-86
2023/04/11 09:46:57;;;;;;;19.40;15.90;;;;;;;13.64;85.45;99590.42;180648;1264;44099;-86
2023/04/11 09:51:03;;;;;;;24.50;17.70;;;;;;;13.60;82.23;99591.76;180479;1264;44138;-83
2023/04/11 09:55:07;;;;;;;23.60;17.40;;;;;;;13.54;82.97;99597.04;180616;1264;44198;-83
2023/04/11 09:59:10;;;;;;;21.30;16.20;;;;;;;13.57;84.12;99604.39;180518;1264;44150;-85
2023/04/11 10:03:12;;;;;;;22.50;16.40;;;;;;;13.38;83.45;99598.48;180568;1264;57930;-83
2023/04/11 10:07:17;;;;;;;20.30;16.20;;;;;;;13.06;86.10;99598.79;180598;1264;43691;-84
2023/04/11 10:11:21;;;;;;;24.70;19.00;;;;;;;12.75;89.62;99603.30;180646;1264;44233;-83
2023/04/11 10:15:26;;;;;;;19.30;16.10;;;;;;;12.44;90.49;99613.59;180468;1264;44143;-83
2023/04/11 10:19:29;;;;;;;22.30;16.60;;;;;;;12.08;93.20;99624.73;180527;1264;44185;-83
2023/04/11 10:24:06;;;;;;;13.70;10.70;;;;;;;11.89;96.28;99637.16;180671;1264;57936;-83
2023/04/11 10:28:28;;;;;;;10.80;8.90;;;;;;;11.62;99.62;99656.11;180625;1264;44198;-85
2023/04/11 10:32:31;;;;;;;10.00;7.40;;;;;;;11.43;100.00;99655.81;180507;1264;44296;-85
2023/04/11 10:37:02;;;;;;;11.90;8.60;;;;;;;11.23;100.00;99658.19;180634;1264;43958;-85
2023/04/11 10:41:41;;;;;;;10.80;6.10;;;;;;;10.99;100.00;99658.30;180535;1264;43894;-85
2023/04/11 10:46:04;;;;;;;11.40;7.60;;;;;;;10.78;100.00;99660.63;180641;1264;57980;-85
2023/04/11 10:50:25;;;;;;;9.50;7.80;;;;;;;10.60;100.00;99664.17;180641;1264;43975;-85
2023/04/11 10:54:28;;;;;;;14.30;8.80;;;;;;;10.56;100.00;99661.20;180617;1264;43926;-84
2023/04/11 10:58:38;;;;;;;9.70;7.40;;;;;;;10.54;100.00;99667.89;180513;1264;44015;-84
2023/04/11 11:02:41;;;;;;;11.90;9.30;;;;;;;10.56;100.00;99670.76;180440;1264;45562;-84
2023/04/11 11:06:45;;;;;;;10.30;7.20;;;;;;;10.59;100.00;99665.97;180432;1264;59304;-83
2023/04/11 11:11:00;;;;;;;7.70;6.50;;;;;;;10.57;100.00;99662.86;180472;1264;44233;-84
2023/04/11 11:15:12;;;;;;;3.30;2.90;;;;;;;10.57;100.00;99664.98;180506;1263;43959;-84
2023/04/11 11:19:15;;;;;;;5.50;4.00;;;;;;;10.56;100.00;99675.07;180614;1264;44073;-84
2023/04/11 11:23:18;;;;;;;5.40;3.00;;;;;;;10.52;100.00;99676.64;180511;1264;43926;-84
2023/04/11 11:27:22;;;;;;;5.20;3.50;;;;;;;10.50;100.00;99679.33;180511;1264;59184;-84
2023/04/11 11:31:37;;;;;;;2.20;2.00;;;;;;;10.41;100.00;99676.42;180468;1264;44280;-84
2023/04/11 11:35:43;;;;;;;5.20;3.80;;;;;;;10.30;100.00;99682.98;180448;1263;44257;-83
2023/04/11 11:39:47;;;;;;;7.80;5.30;;;;;;;10.40;100.00;99686.92;180535;1264;43854;-84
2023/04/11 11:43:50;;;;;;;7.10;4.60;;;;;;;10.48;100.00;99688.55;180682;1264;44097;-84
2023/04/11 11:47:52;;;;;;;10.00;5.90;;;;;;;10.56;100.00;99692.98;180500;1263;58340;-85
2023/04/11 11:51:55;;;;;;;6.80;5.10;;;;;;;10.65;100.00;99691.61;180525;1264;44216;-83
2023/04/11 11:55:59;;;;;;;9.40;6.40;;;;;;;10.64;100.00;99680.69;180496;1264;44089;-85
2023/04/11 12:00:09;;;;;;;5.90;5.20;;;;;;;10.66;100.00;99680.13;180388;1264;44187;-84
2023/04/11 12:04:11;;;;;;;7.40;5.10;;;;;;;10.64;100.00;99675.59;180625;1264;43790;-84
2023/04/11 12:08:18;;;;;;;10.90;7.40;;;;;;;10.64;100.00;99667.63;180486;1264;59237;-84
2023/04/11 12:12:21;;;;;;;11.20;5.00;;;;;;;10.63;100.00;99654.18;180448;1264;44281;-84
2023/04/11 12:16:24;;;;;;;6.90;5.10;;;;;;;10.77;100.00;99645.77;180522;1264;44136;-84
2023/04/11 12:20:27;;;;;;;10.70;6.20;;;;;;;11.01;100.00;99640.41;180415;1264;44082;-84
2023/04/11 12:24:30;;;;;;;7.60;4.90;;;;;;;11.15;100.00;99637.67;180462;1264;44291;-83
2023/04/11 12:28:33;;;;;;;6.50;4.60;;;;;;;11.31;100.00;99638.81;180442;1264;59758;-84
2023/04/11 12:32:36;;;;;;;7.00;4.70;;;;;;;11.46;100.00;99646.83;180465;1264;44409;-84
2023/04/11 12:36:39;;;;;;;7.00;4.30;;;;;;;11.58;100.00;99650.48;180458;1264;44210;-84
2023/04/11 12:40:42;;;;;;;6.40;4.50;;;;;;;11.69;100.00;99652.98;180390;1264;43938;-83
2023/04/11 12:44:46;;;;;;;6.60;4.60;;;;;;;11.81;100.00;99659.28;180372;1264;43909;-84
2023/04/11 12:48:50;;;;;;;6.20;4.20;;;;;;;11.89;100.00;99661.85;180461;1264;57931;-84
2023/04/11 12:52:53;;;;;;;6.30;5.60;;;;;;;12.07;100.00;99663.23;180435;1264;43879;-84
2023/04/11 13:01:35;;;;;;;6.10;4.80;;;;;;;12.32;99.88;99655.45;174309;1264;78599;-85
2023/04/11 13:05:38;;;;;;;7.00;3.60;;;;;;;12.41;98.70;99657.89;180396;1264;44023;-85
2023/04/11 13:09:41;;;;;;;6.50;4.60;;;;;;;12.45;96.19;99656.55;180584;1264;58602;-88
2023/04/11 13:13:45;;;;;;;6.80;4.30;;;;;;;12.55;96.71;99658.27;180439;1264;43877;-88
2023/04/11 13:17:49;;;;;;;7.60;5.10;;;;;;;12.64;94.72;99659.88;180560;1264;43923;-89
2023/04/11 13:21:52;;;;;;;4.70;3.90;;;;;;;12.67;94.64;99659.95;180818;1264;43802;-87
2023/04/11 13:25:55;;;;;;;2.90;2.40;;;;;;;12.54;91.06;99658.23;180698;1264;44035;-89
2023/04/11 13:29:58;;;;;;;2.40;1.50;;;;;;;12.55;89.26;99661.33;180690;1264;59261;-86
2023/04/11 13:34:01;;;;;;;4.10;2.60;;;;;;;12.53;90.58;99662.09;180698;1264;43807;-88
2023/04/11 13:38:04;;;;;;;2.00;1.40;;;;;;;12.72;89.66;99653.49;180740;1264;43918;-90
2023/04/11 13:42:08;;;;;;;3.60;2.90;;;;;;;12.84;88.17;99652.98;180671;1264;44174;-88
2023/04/11 13:46:12;;;;;;;5.70;3.40;;;;;;;12.93;88.74;99653.10;180564;1264;43811;-87
2023/04/11 13:50:15;;;;;;;4.70;3.60;;;;;;;12.94;88.69;99651.91;180489;1264;57922;-86
2023/04/11 13:54:19;;;;;;;3.40;2.40;;;;;;;12.96;88.77;99646.52;180480;1264;44252;-88
2023/04/11 13:58:22;;;;;;;2.60;2.10;;;;;;;12.89;85.57;99650.15;180549;1264;43774;-87
2023/04/11 14:02:25;;;;;;;3.50;2.40;;;;;;;12.83;87.99;99644.88;180431;1264;43824;-87
2023/04/11 14:06:29;;;;;;;1.70;1.30;;;;;;;12.83;87.24;99639.55;180543;1264;44364;-87
2023/04/11 14:10:32;;;;;;;4.70;2.50;;;;;;;12.88;87.31;99640.06;180455;1264;59627;-86
2023/04/11 14:14:35;;;;;;;3.10;2.70;;;;;;;12.89;86.41;99644.91;180503;1264;44157;-87
2023/04/11 14:18:39;;;;;;;4.90;2.90;;;;;;;12.78;86.71;99650.00;180606;1264;43925;-91
2023/04/11 14:22:44;;;;;;;6.10;3.30;;;;;;;12.83;88.03;99646.77;180455;1264;43909;-87
2023/04/11 14:26:49;;;;;;;3.70;2.70;;;;;;;12.60;85.89;99642.55;180368;1266;48998;-87
2023/04/11 14:30:52;;;;;;;3.60;2.30;;;;;;;11.66;84.95;99659.08;180265;1267;57981;-87
2023/04/11 14:34:55;;;;;;;4.20;1.80;;;;;;;10.51;92.46;99668.02;180428;1266;44399;-87
2023/04/11 14:38:58;;;;;;;3.60;1.60;;;;;;;9.76;99.60;99684.36;180396;1265;44572;-87
2023/04/11 14:43:02;;;;;;;2.20;1.80;;;;;;;9.26;100.00;99685.89;180399;1267;44155;-88
2023/04/11 14:47:05;;;;;;;6.10;2.00;;;;;;;9.15;100.00;99684.50;180358;1266;43988;-86
2023/04/11 14:51:10;;;;;;;4.20;1.90;;;;;;;9.36;100.00;99675.31;180439;1265;57912;-85
2023/04/11 14:55:13;;;;;;;2.40;1.60;;;;;;;9.65;100.00;99678.43;180442;1266;44118;-86
2023/04/11 14:59:16;;;;;;;3.90;2.10;;;;;;;9.86;100.00;99678.77;180508;1266;44187;-86
2023/04/11 15:03:19;;;;;;;1.70;1.40;;;;;;;10.23;100.00;99667.91;180438;1266;44200;-86
2023/04/11 15:07:23;;;;;;;2.90;1.70;;;;;;;10.71;98.46;99661.11;180289;1265;43931;-86
2023/04/11 15:11:27;;;;;;;3.40;1.20;;;;;;;10.99;92.71;99663.49;180463;1266;58307;-86
2023/04/11 15:15:30;;;;;;;3.00;1.70;;;;;;;10.97;87.61;99665.07;180425;1266;43882;-89
2023/04/11 15:19:34;;;;;;;3.50;1.50;;;;;;;11.06;88.39;99666.05;180497;1266;43857;-85
2023/04/11 15:23:37;;;;;;;2.10;1.10;;;;;;;11.09;87.82;99668.98;180427;1266;43964;-87
2023/04/11 15:27:41;;;;;;;3.20;1.90;;;;;;;10.87;84.88;99670.80;180444;1267;43997;-87
2023/04/11 15:31:54;;;;;;;3.40;2.60;;;;;;;10.85;87.12;99673.27;180520;1265;59257;-86
2023/04/11 15:35:58;;;;;;;4.60;2.70;;;;;;;10.91;85.74;99675.19;180478;1267;43937;-87
2023/04/11 15:40:05;;;;;;;5.90;3.30;;;;;;;10.99;85.92;99681.01;180482;1264;44064;-87
2023/04/11 15:44:08;;;;;;;3.30;2.60;;;;;;;10.92;86.88;99685.55;180237;1265;45245;-87
2023/04/11 15:48:12;;;;;;;10.40;3.00;;;;;;;10.88;88.32;99685.95;180455;1266;44178;-88
2023/04/11 15:52:16;;;;;;;3.50;2.30;;;;;;;10.91;87.55;99688.52;180164;1267;58366;-88
2023/04/11 15:56:20;;;;;;;1.90;1.40;;;;;;;11.03;90.40;99694.00;180158;1266;43920;-88
2023/04/11 16:00:26;;;;;;;3.00;2.00;;;;;;;11.06;90.37;99697.80;180539;1265;43868;-88
2023/04/11 16:04:29;;;;;;;3.70;1.40;;;;;;;11.04;89.65;99695.33;180375;1266;43828;-88
2023/04/11 16:08:32;;;;;;;4.90;2.60;;;;;;;10.85;89.44;99702.17;180508;1266;43926;-85
2023/04/11 16:12:36;;;;;;;12.70;3.20;;;;;;;10.78;90.19;99709.63;180523;1266;59235;-85
2023/04/11 16:16:39;;;;;;;4.90;1.70;;;;;;;10.70;89.18;99710.11;180317;1267;44080;-85
2023/04/11 16:20:42;;;;;;;6.60;3.20;;;;;;;10.60;89.20;99713.29;180377;1266;44005;-86
2023/04/11 16:24:46;;;;;;;6.30;2.60;;;;;;;10.46;89.39;99705.71;180504;1266;43810;-86
2023/04/11 16:28:50;;;;;;;3.70;2.10;;;;;;;10.34;89.76;99706.92;180354;1265;44278;-86
2023/04/11 16:32:53;;;;;;;4.30;2.20;;;;;;;10.23;90.81;99712.89;180442;1266;59595;-86
2023/04/11 16:36:57;;;;;;;6.00;3.30;;;;;;;10.10;91.67;99721.23;180486;1267;44098;-86
2023/04/11 16:41:02;;;;;;;3.30;1.90;;;;;;;10.00;92.62;99726.72;180539;1266;43917;-86
2023/04/11 16:45:10;;;;;;;3.60;3.10;;;;;;;9.96;93.13;99731.73;180444;1267;44093;-86
2023/04/11 16:49:15;;;;;;;8.40;4.40;;;;;;;9.92;93.73;99731.75;180507;1267;43802;-86
2023/04/11 16:53:18;;;;;;;5.20;3.70;;;;;;;9.84;94.95;99724.98;180430;1266;59380;-86
2023/04/11 16:57:23;;;;;;;7.10;5.10;;;;;;;9.78;95.70;99727.40;180231;1265;44116;-86
2023/04/11 17:01:27;;;;;;;8.80;4.70;;;;;;;9.80;96.37;99723.52;180297;1266;44246;-86
2023/04/11 17:05:33;;;;;;;9.00;4.90;;;;;;;9.85;96.70;99728.41;180446;1266;44244;-87
2023/04/11 17:09:36;;;;;;;6.80;4.00;;;;;;;9.92;96.87;99731.00;180431;1266;43855;-86
2023/04/11 17:13:47;;;;;;;10.40;5.20;;;;;;;9.94;97.40;99736.18;180481;1267;58696;-86
2023/04/11 17:17:50;;;;;;;7.40;5.40;;;;;;;9.99;97.81;99745.95;180399;1265;43930;-87
2023/04/11 17:21:53;;;;;;;4.60;3.70;;;;;;;10.00;98.44;99753.33;180499;1265;43850;-87
2023/04/11 17:25:59;;;;;;;7.00;1.60;;;;;;;9.37;99.54;99810.44;180348;1266;50335;-86
2023/04/11 17:30:02;;;;;;;5.20;1.70;;;;;;;8.30;99.65;99838.16;180472;1266;44006;-88
2023/04/11 17:34:06;;;;;;;0.60;0.50;;;;;;;7.63;100.00;99838.86;180499;1266;58303;-87
2023/04/11 17:38:09;;;;;;;2.70;0.70;;;;;;;7.36;100.00;99835.09;180442;1267;44496;-87
2023/04/11 17:42:13;;;;;;;1.90;1.00;;;;;;;7.30;100.00;99824.63;180475;1266;44171;-88
2023/04/11 17:46:16;;;;;;;6.20;1.20;;;;;;;7.28;100.00;99809.23;180531;1264;44313;-89
2023/04/11 17:50:19;;;;;;;0.60;0.60;;;;;;;7.36;100.00;99807.05;180281;1266;43855;-89
2023/04/11 17:54:22;;;;;;;2.00;0.70;;;;;;;7.41;100.00;99810.19;180200;1266;56979;-90
2023/04/11 17:58:26;;;;;;;3.60;1.50;;;;;;;7.35;100.00;99813.70;180487;1267;43832;-89
2023/04/11 18:02:31;;;;;;;2.80;2.50;;;;;;;7.40;100.00;99816.82;180517;1265;44359;-90
2023/04/11 18:06:35;;;;;;;2.10;1.40;;;;;;;7.39;100.00;99833.48;180382;1266;44093;-90
2023/04/11 18:10:39;;;;;;;3.60;0.90;;;;;;;7.34;100.00;99854.00;180487;1266;43957;-90
2023/04/11 18:14:42;;;;;;;2.00;1.20;;;;;;;7.38;100.00;99866.70;180434;1265;59786;-89
2023/04/11 18:18:46;;;;;;;3.60;1.60;;;;;;;7.42;100.00;99872.75;180514;1267;44224;-90
2023/04/11 18:22:53;;;;;;;4.70;3.70;;;;;;;7.42;100.00;99870.10;180494;1266;43795;-90
2023/04/11 18:26:57;;;;;;;4.90;3.50;;;;;;;7.42;100.00;99869.21;180602;1265;44001;-90
2023/04/11 18:31:00;;;;;;;7.60;4.20;;;;;;;7.39;100.00;99873.36;180619;1266;44074;-90
2023/04/11 18:35:06;;;;;;;5.30;4.00;;;;;;;7.35;100.00;99876.81;180639;1267;59676;-89
2023/04/11 18:39:09;;;;;;;5.00;3.30;;;;;;;7.25;100.00;99874.87;180441;1266;44340;-88
2023/04/11 18:43:23;;;;;;;7.40;3.30;;;;;;;7.17;100.00;99875.14;180601;1266;44061;-88
2023/04/11 18:47:27;;;;;;;4.60;3.10;;;;;;;7.09;100.00;99872.91;180228;1266;44373;-89
2023/04/11 18:51:31;;;;;;;3.70;2.90;;;;;;;7.03;100.00;99870.52;180506;1264;43838;-90
2023/04/11 18:55:34;;;;;;;6.90;3.20;;;;;;;6.88;100.00;99875.44;180608;1267;59334;-90
2023/04/11 18:59:39;;;;;;;5.70;4.20;;;;;;;6.79;100.00;99871.89;180497;1267;43825;-90
2023/04/11 19:03:46;;;;;;;5.20;4.10;;;;;;;6.75;100.00;99874.67;180581;1266;44119;-89
2023/04/11 19:07:50;;;;;;;5.00;4.30;;;;;;;6.75;100.00;99879.27;180484;1267;44096;-88
2023/04/11 19:11:53;;;;;;;7.70;4.00;;;;;;;6.70;100.00;99886.79;180397;1266;44135;-89
2023/04/11 19:29:39;;;;;;;7.80;4.60;;;;;;;6.13;100.00;99881.64;180897;1266;43900;-91
2023/04/11 20:49:54;;;;;;;12.40;7.40;;;;;;;5.58;100.00;99872.12;180798;1264;57739;-90
2023/04/11 20:54:00;;;;;;;10.20;7.10;;;;;;;5.60;100.00;99869.23;180832;1263;43757;-89
2023/04/11 20:58:07;;;;;;;12.40;7.40;;;;;;;5.58;100.00;99867.23;180711;1263;44653;-90
2023/04/11 21:02:11;;;;;;;11.10;7.50;;;;;;;5.53;100.00;99873.89;180826;1263;44273;-90
2023/04/11 21:06:15;;;;;;;14.00;8.50;;;;;;;5.50;100.00;99883.95;180788;1265;43700;-89
2023/04/11 21:10:19;;;;;;;13.40;6.90;;;;;;;5.45;100.00;99884.77;180689;1263;58611;-89
2023/04/11 21:14:23;;;;;;;16.10;8.80;;;;;;;5.47;100.00;99886.58;180584;1264;44085;-89
2023/04/11 21:18:26;;;;;;;12.40;7.50;;;;;;;5.50;100.00;99889.58;180747;1264;44027;-89
2023/04/11 21:22:29;;;;;;;10.30;6.90;;;;;;;5.57;100.00;99895.09;180633;1263;44819;-89
2023/04/11 21:26:33;;;;;;;13.20;9.70;;;;;;;5.61;100.00;99891.98;180691;1264;44025;-89
2023/04/11 21:30:37;;;;;;;11.50;8.10;;;;;;;5.54;100.00;99892.32;180686;1264;58453;-89
2023/04/11 21:34:40;;;;;;;12.20;8.50;;;;;;;5.43;100.00;99888.61;180624;1264;44107;-90
2023/04/11 21:38:43;;;;;;;10.30;7.50;;;;;;;5.36;100.00;99889.60;180628;1264;44001;-90
2023/04/11 21:42:47;;;;;;;10.00;7.60;;;;;;;5.29;100.00;99892.92;180781;1265;44103;-89
2023/04/11 21:46:51;;;;;;;13.60;7.40;;;;;;;5.21;100.00;99893.21;180735;1264;43788;-90
2023/04/11 21:50:54;;;;;;;13.10;7.40;;;;;;;5.15;100.00;99892.75;180773;1264;57566;-90
2023/04/11 21:54:57;;;;;;;11.60;7.70;;;;;;;5.06;100.00;99893.52;180595;1265;44029;-89
2023/04/11 21:59:01;;;;;;;11.70;7.50;;;;;;;5.00;100.00;99892.30;180678;1265;43952;-90
2023/04/11 22:03:04;;;;;;;9.60;7.30;;;;;;;4.94;100.00;99889.70;180744;1265;44488;-90
2023/04/11 22:07:07;;;;;;;12.00;6.70;;;;;;;4.94;100.00;99884.94;180740;1264;44891;-89
2023/04/11 22:11:14;;;;;;;13.30;7.60;;;;;;;4.91;100.00;99882.31;180806;1263;58467;-89
2023/04/11 22:15:22;;;;;;;11.40;6.80;;;;;;;4.88;100.00;99882.33;180750;1264;43818;-89
2023/04/11 22:19:27;;;;;;;15.60;6.10;;;;;;;4.89;100.00;99879.33;180719;1264;44195;-89
2023/04/11 22:23:31;;;;;;;10.00;7.20;;;;;;;4.87;100.00;99880.65;180828;1264;43879;-90
2023/04/11 22:27:37;;;;;;;6.60;4.30;;;;;;;4.87;100.00;99882.23;180929;1265;44015;-90
2023/04/11 22:31:41;;;;;;;6.00;4.70;;;;;;;4.91;100.00;99883.88;180797;1263;59265;-90
2023/04/11 22:35:46;;;;;;;11.10;5.50;;;;;;;4.99;100.00;99879.71;180715;1263;43876;-90
2023/04/11 22:39:50;;;;;;;9.10;5.80;;;;;;;5.05;100.00;99887.60;180786;1265;48116;-90
2023/04/11 22:43:55;;;;;;;12.40;5.30;;;;;;;5.08;100.00;99891.60;180875;1263;44011;-91
2023/04/11 22:47:59;;;;;;;5.20;4.30;;;;;;;5.12;100.00;99891.02;180765;1263;44514;-90
2023/04/11 22:52:02;;;;;;;7.80;5.50;;;;;;;5.13;100.00;99892.52;180774;1264;59799;-90
2023/04/11 22:56:07;;;;;;;7.60;4.60;;;;;;;5.16;100.00;99895.49;180681;1264;43792;-90